Tinsdal — V2AJ2 — position and weather

sailwx.info

Track history (hours):
 
Tides and Currents Weather Stations Pressure Air Temp Water Temp Dewpoint Dewpoint Depression Visibility Wind Speed Wind Dir Waves Ship Positions

Tinsdal

Last reported at 2014-Nov-01 09:34 UTC. Time now 2014-Nov-01 09:49 UTC.
Position N 51°21' E 003°50'.

Length 90 m; draft 5.9 m.

Type: Cargo ship. MMSI: 305573000.

Date/timePositionNaut miles runAvg speedWind from/ knotsBaromVisibWave heightAir tempDewpointWater temp
2014-Nov-01 09:34N 51°21' E 003°50'9 8.5
2014-Nov-01 08:33N 51°25' E 004°02'7 7.1
2014-Nov-01 07:32N 51°23' E 004°13'3 3.1
2014-Nov-01 06:33N 51°21' E 004°17'0 0.3
2014-Nov-01 05:34N 51°21' E 004°18'1 0.7
2014-Nov-01 04:22N 51°22' E 004°17'0 0.0
2014-Nov-01 03:31N 51°22' E 004°17'0 0.0
2014-Nov-01 02:28N 51°22' E 004°17'0 0.0
2014-Nov-01 01:28N 51°22' E 004°17'0 0.0
2014-Nov-01 00:31N 51°22' E 004°17'0 0.0
2014-Oct-31 23:28N 51°22' E 004°17'0 0.0
2014-Oct-31 22:25N 51°22' E 004°17'0 0.0
2014-Oct-31 21:22N 51°22' E 004°17'0 0.0
2014-Oct-31 20:25N 51°22' E 004°17'0 0.0
2014-Oct-31 19:19N 51°22' E 004°17'0 0.0
2014-Oct-31 18:25N 51°22' E 004°17'0 0.0
2014-Oct-31 17:28N 51°22' E 004°17'0 0.0
2014-Oct-31 16:13N 51°22' E 004°17'0 0.0
2014-Oct-31 15:28N 51°22' E 004°17'0 0.0
2014-Oct-31 14:25N 51°22' E 004°17'0 0.0
2014-Oct-31 13:28N 51°22' E 004°17'0 0.0
2014-Oct-31 12:31N 51°22' E 004°17'0 0.0
2014-Oct-31 11:28N 51°22' E 004°17'0 0.0
2014-Oct-31 10:31N 51°22' E 004°17'0 0.0
2014-Oct-31 09:25N 51°22' E 004°17'0 0.0
2014-Oct-31 08:07N 51°22' E 004°17'0 0.0
2014-Oct-31 07:28N 51°22' E 004°17'0 0.0
2014-Oct-31 06:25N 51°22' E 004°17'0 0.0
2014-Oct-31 05:28N 51°22' E 004°17'0 0.0
2014-Oct-31 04:13N 51°22' E 004°17'0 0.0
2014-Oct-31 03:31N 51°22' E 004°17'0 0.0
2014-Oct-31 02:31N 51°22' E 004°17'0 0.0
2014-Oct-31 01:25N 51°22' E 004°17'0 0.0
2014-Oct-31 00:31N 51°22' E 004°17'0 0.0
2014-Oct-30 23:28N 51°22' E 004°17'0 0.0
2014-Oct-30 22:28N 51°22' E 004°17'0 0.0
2014-Oct-30 21:31N 51°22' E 004°17'0 0.1
2014-Oct-30 20:31N 51°22' E 004°17'0 0.0
2014-Oct-30 19:31N 51°22' E 004°17'0 0.0
2014-Oct-30 18:25N 51°22' E 004°17'0 0.0
2014-Oct-30 17:25N 51°22' E 004°17'0 0.0
2014-Oct-30 16:10N 51°22' E 004°17'0 0.0
2014-Oct-30 15:22N 51°22' E 004°17'0 0.0
2014-Oct-30 14:31N 51°22' E 004°17'0 0.0
2014-Oct-30 13:28N 51°22' E 004°17'0 0.0
2014-Oct-30 12:25N 51°22' E 004°17'0 0.0
2014-Oct-30 11:31N 51°22' E 004°17'0 0.0
2014-Oct-30 10:31N 51°22' E 004°17'0 0.0
2014-Oct-30 09:31N 51°22' E 004°17'0 0.0
2014-Oct-30 08:25N 51°22' E 004°17'1 0.8
2014-Oct-30 07:33N 51°21' E 004°18'0 0.4
2014-Oct-30 06:33N 51°21' E 004°17'3 2.6
2014-Oct-30 05:34N 51°22' E 004°13'9 9.3
2014-Oct-30 04:33N 51°26' E 004°00'1110.8
2014-Oct-30 03:33N 51°22' E 003°44'1010.2
2014-Oct-30 02:33N 51°25' E 003°28'1311.8
2014-Oct-30 01:29N 51°24' E 003°08'910.0
2014-Oct-30 00:33N 51°22' E 002°53'9 9.5
2014-Oct-29 23:33N 51°22' E 002°38'9 7.1
2014-Oct-29 22:19N 51°21' E 002°24'7 8.5
2014-Oct-29 21:33N 51°19' E 002°14'11 9.6
2014-Oct-29 20:27N 51°23' E 001°58'910.5
2014-Oct-29 19:34N 51°23' E 001°43'1010.1
2014-Oct-29 18:34N 51°27' E 001°28'1010.3
2014-Oct-29 17:34N 51°29' E 001°12'1211.8
2014-Oct-29 16:34N 51°29' E 000°53'7 7.4
2014-Oct-29 15:33N 51°24' E 000°44'1 1.3
2014-Oct-29 14:32N 51°23' E 000°46'0 0.0
2014-Oct-29 13:29N 51°23' E 000°46'0 0.0
2014-Oct-29 12:32N 51°23' E 000°46'0 0.0
2014-Oct-29 11:32N 51°23' E 000°46'0 0.0
2014-Oct-29 10:32N 51°23' E 000°46'0 0.0
2014-Oct-29 09:32N 51°23' E 000°46'0 0.0
2014-Oct-29 08:32N 51°23' E 000°46'0 0.0
2014-Oct-29 07:20N 51°23' E 000°46'0 0.0
2014-Oct-29 06:20N 51°23' E 000°46'0 0.0
2014-Oct-29 05:26N 51°23' E 000°46'0 0.0
2014-Oct-29 04:29N 51°23' E 000°46'0 0.0
2014-Oct-29 02:32N 51°23' E 000°46'0 0.0
2014-Oct-29 00:20N 51°23' E 000°46'0 0.0
2014-Oct-28 23:26N 51°23' E 000°46'0 0.0
2014-Oct-28 22:29N 51°23' E 000°46'0 0.0
2014-Oct-28 21:32N 51°23' E 000°46'0 0.0
2014-Oct-28 20:32N 51°23' E 000°46'0 0.0
2014-Oct-28 19:32N 51°23' E 000°46'0 0.0
2014-Oct-28 17:23N 51°23' E 000°46'0 0.0
2014-Oct-28 16:23N 51°23' E 000°46'0 0.0
2014-Oct-28 14:17N 51°23' E 000°46'0 0.0
2014-Oct-28 13:26N 51°23' E 000°46'0 0.0
2014-Oct-28 11:26N 51°23' E 000°46'0 0.0
2014-Oct-28 10:32N 51°23' E 000°46'0 0.0
2014-Oct-28 09:14N 51°23' E 000°46'0 0.0
2014-Oct-28 08:29N 51°23' E 000°46'0 0.0
2014-Oct-28 07:14N 51°23' E 000°46'0 0.0
2014-Oct-28 06:20N 51°23' E 000°46'0 0.0
2014-Oct-28 04:26N 51°23' E 000°46'0 0.0
2014-Oct-28 03:26N 51°23' E 000°46'0 0.0
2014-Oct-28 02:05N 51°23' E 000°46'0 0.0
2014-Oct-27 23:32N 51°23' E 000°46'0 0.0
2014-Oct-27 20:32N 51°23' E 000°46'0 0.0
2014-Oct-27 18:14N 51°23' E 000°46'0 0.0
2014-Oct-27 17:32N 51°23' E 000°46'0 0.0
2014-Oct-27 14:05N 51°23' E 000°46'0 0.0
2014-Oct-27 13:26N 51°23' E 000°46'0 0.0
2014-Oct-27 12:08N 51°23' E 000°46'0 0.0
2014-Oct-27 11:23N 51°23' E 000°46'0 0.0
2014-Oct-27 09:26N 51°23' E 000°46'0 0.0
2014-Oct-27 08:29N 51°23' E 000°46'0 0.0
2014-Oct-27 07:26N 51°23' E 000°46'0 0.0
2014-Oct-27 06:32N 51°23' E 000°46'0 0.0
2014-Oct-27 05:26N 51°23' E 000°46'0 0.0
2014-Oct-27 04:32N 51°23' E 000°46'0 0.0
2014-Oct-27 03:20N 51°23' E 000°46'0 0.0
2014-Oct-27 02:32N 51°23' E 000°46'0 0.0
2014-Oct-27 01:32N 51°23' E 000°46'0 0.0
2014-Oct-27 00:20N 51°23' E 000°46'0 0.0
2014-Oct-26 23:23N 51°23' E 000°46'0 0.0
2014-Oct-26 22:32N 51°23' E 000°46'0 0.0
2014-Oct-26 21:32N 51°23' E 000°46'0 0.0
2014-Oct-26 20:26N 51°23' E 000°46'0 0.0
2014-Oct-26 19:23N 51°23' E 000°46'0 0.0
2014-Oct-26 18:29N 51°23' E 000°46'0 0.0
2014-Oct-26 15:29N 51°23' E 000°46'0 0.0
2014-Oct-26 14:29N 51°23' E 000°46'0 0.0
2014-Oct-26 13:24N 51°23' E 000°46'2 3.0
2014-Oct-26 12:34N 51°25' E 000°44'1110.8
2014-Oct-26 11:32N 51°30' E 001°00'1212.1
2014-Oct-26 10:33N 51°29' E 001°19'6 5.6
2014-Oct-26 09:33N 51°25' E 001°27'0 0.0
2014-Oct-26 08:34N 51°25' E 001°27'0 0.0
2014-Oct-26 07:34N 51°25' E 001°27'4 4.0
2014-Oct-26 06:34N 51°24' E 001°33'6 6.1
2014-Oct-26 05:34N 51°20' E 001°40'8 7.6
2014-Oct-26 04:34N 51°12' E 001°38'9 9.2
2014-Oct-26 03:34N 51°03' E 001°35'  
Track history (hours):
 
Tides and Currents Weather Stations Pressure Air Temp Water Temp Dewpoint Dewpoint Depression Visibility Wind Speed Wind Dir Waves Ship Positions

Tinsdal

Last reported at 2014-Nov-01 09:34 UTC. Time now 2014-Nov-01 09:49 UTC.
Position N 51°21' E 003°50'.

Length 90 m; draft 5.9 m.

Type: Cargo ship. MMSI: 305573000.

Date/timePositionNaut miles runAvg speedWind from/ knotsBaromVisibWave heightAir tempDewpointWater temp
2014-Nov-01 09:34N 51°21' E 003°50'9 8.5
2014-Nov-01 08:33N 51°25' E 004°02'7 7.1
2014-Nov-01 07:32N 51°23' E 004°13'3 3.1
2014-Nov-01 06:33N 51°21' E 004°17'0 0.3
2014-Nov-01 05:34N 51°21' E 004°18'1 0.7
2014-Nov-01 04:22N 51°22' E 004°17'0 0.0
2014-Nov-01 03:31N 51°22' E 004°17'0 0.0
2014-Nov-01 02:28N 51°22' E 004°17'0 0.0
2014-Nov-01 01:28N 51°22' E 004°17'0 0.0
2014-Nov-01 00:31N 51°22' E 004°17'0 0.0
2014-Oct-31 23:28N 51°22' E 004°17'0 0.0
2014-Oct-31 22:25N 51°22' E 004°17'0 0.0
2014-Oct-31 21:22N 51°22' E 004°17'0 0.0
2014-Oct-31 20:25N 51°22' E 004°17'0 0.0
2014-Oct-31 19:19N 51°22' E 004°17'0 0.0
2014-Oct-31 18:25N 51°22' E 004°17'0 0.0
2014-Oct-31 17:28N 51°22' E 004°17'0 0.0
2014-Oct-31 16:13N 51°22' E 004°17'0 0.0
2014-Oct-31 15:28N 51°22' E 004°17'0 0.0
2014-Oct-31 14:25N 51°22' E 004°17'0 0.0
2014-Oct-31 13:28N 51°22' E 004°17'0 0.0
2014-Oct-31 12:31N 51°22' E 004°17'0 0.0
2014-Oct-31 11:28N 51°22' E 004°17'0 0.0
2014-Oct-31 10:31N 51°22' E 004°17'0 0.0
2014-Oct-31 09:25N 51°22' E 004°17'0 0.0
2014-Oct-31 08:07N 51°22' E 004°17'0 0.0
2014-Oct-31 07:28N 51°22' E 004°17'0 0.0
2014-Oct-31 06:25N 51°22' E 004°17'0 0.0
2014-Oct-31 05:28N 51°22' E 004°17'0 0.0
2014-Oct-31 04:13N 51°22' E 004°17'0 0.0
2014-Oct-31 03:31N 51°22' E 004°17'0 0.0
2014-Oct-31 02:31N 51°22' E 004°17'0 0.0
2014-Oct-31 01:25N 51°22' E 004°17'0 0.0
2014-Oct-31 00:31N 51°22' E 004°17'0 0.0
2014-Oct-30 23:28N 51°22' E 004°17'0 0.0
2014-Oct-30 22:28N 51°22' E 004°17'0 0.0
2014-Oct-30 21:31N 51°22' E 004°17'0 0.1
2014-Oct-30 20:31N 51°22' E 004°17'0 0.0
2014-Oct-30 19:31N 51°22' E 004°17'0 0.0
2014-Oct-30 18:25N 51°22' E 004°17'0 0.0
2014-Oct-30 17:25N 51°22' E 004°17'0 0.0
2014-Oct-30 16:10N 51°22' E 004°17'0 0.0
2014-Oct-30 15:22N 51°22' E 004°17'0 0.0
2014-Oct-30 14:31N 51°22' E 004°17'0 0.0
2014-Oct-30 13:28N 51°22' E 004°17'0 0.0
2014-Oct-30 12:25N 51°22' E 004°17'0 0.0
2014-Oct-30 11:31N 51°22' E 004°17'0 0.0
2014-Oct-30 10:31N 51°22' E 004°17'0 0.0
2014-Oct-30 09:31N 51°22' E 004°17'0 0.0
2014-Oct-30 08:25N 51°22' E 004°17'1 0.8
2014-Oct-30 07:33N 51°21' E 004°18'0 0.4
2014-Oct-30 06:33N 51°21' E 004°17'3 2.6
2014-Oct-30 05:34N 51°22' E 004°13'9 9.3
2014-Oct-30 04:33N 51°26' E 004°00'1110.8
2014-Oct-30 03:33N 51°22' E 003°44'1010.2
2014-Oct-30 02:33N 51°25' E 003°28'1311.8
2014-Oct-30 01:29N 51°24' E 003°08'910.0
2014-Oct-30 00:33N 51°22' E 002°53'9 9.5
2014-Oct-29 23:33N 51°22' E 002°38'9 7.1
2014-Oct-29 22:19N 51°21' E 002°24'7 8.5
2014-Oct-29 21:33N 51°19' E 002°14'11 9.6
2014-Oct-29 20:27N 51°23' E 001°58'910.5
2014-Oct-29 19:34N 51°23' E 001°43'1010.1
2014-Oct-29 18:34N 51°27' E 001°28'1010.3
2014-Oct-29 17:34N 51°29' E 001°12'1211.8
2014-Oct-29 16:34N 51°29' E 000°53'7 7.4
2014-Oct-29 15:33N 51°24' E 000°44'1 1.3
2014-Oct-29 14:32N 51°23' E 000°46'0 0.0
2014-Oct-29 13:29N 51°23' E 000°46'0 0.0
2014-Oct-29 12:32N 51°23' E 000°46'0 0.0
2014-Oct-29 11:32N 51°23' E 000°46'0 0.0
2014-Oct-29 10:32N 51°23' E 000°46'0 0.0
2014-Oct-29 09:32N 51°23' E 000°46'0 0.0
2014-Oct-29 08:32N 51°23' E 000°46'0 0.0
2014-Oct-29 07:20N 51°23' E 000°46'0 0.0
2014-Oct-29 06:20N 51°23' E 000°46'0 0.0
2014-Oct-29 05:26N 51°23' E 000°46'0 0.0
2014-Oct-29 04:29N 51°23' E 000°46'0 0.0
2014-Oct-29 02:32N 51°23' E 000°46'0 0.0
2014-Oct-29 00:20N 51°23' E 000°46'0 0.0
2014-Oct-28 23:26N 51°23' E 000°46'0 0.0
2014-Oct-28 22:29N 51°23' E 000°46'0 0.0
2014-Oct-28 21:32N 51°23' E 000°46'0 0.0
2014-Oct-28 20:32N 51°23' E 000°46'0 0.0
2014-Oct-28 19:32N 51°23' E 000°46'0 0.0
2014-Oct-28 17:23N 51°23' E 000°46'0 0.0
2014-Oct-28 16:23N 51°23' E 000°46'0 0.0
2014-Oct-28 14:17N 51°23' E 000°46'0 0.0
2014-Oct-28 13:26N 51°23' E 000°46'0 0.0
2014-Oct-28 11:26N 51°23' E 000°46'0 0.0
2014-Oct-28 10:32N 51°23' E 000°46'0 0.0
2014-Oct-28 09:14N 51°23' E 000°46'0 0.0
2014-Oct-28 08:29N 51°23' E 000°46'0 0.0
2014-Oct-28 07:14N 51°23' E 000°46'0 0.0
2014-Oct-28 06:20N 51°23' E 000°46'0 0.0
2014-Oct-28 04:26N 51°23' E 000°46'0 0.0
2014-Oct-28 03:26N 51°23' E 000°46'0 0.0
2014-Oct-28 02:05N 51°23' E 000°46'0 0.0
2014-Oct-27 23:32N 51°23' E 000°46'0 0.0
2014-Oct-27 20:32N 51°23' E 000°46'0 0.0
2014-Oct-27 18:14N 51°23' E 000°46'0 0.0
2014-Oct-27 17:32N 51°23' E 000°46'0 0.0
2014-Oct-27 14:05N 51°23' E 000°46'0 0.0
2014-Oct-27 13:26N 51°23' E 000°46'0 0.0
2014-Oct-27 12:08N 51°23' E 000°46'0 0.0
2014-Oct-27 11:23N 51°23' E 000°46'0 0.0
2014-Oct-27 09:26N 51°23' E 000°46'0 0.0
2014-Oct-27 08:29N 51°23' E 000°46'0 0.0
2014-Oct-27 07:26N 51°23' E 000°46'0 0.0
2014-Oct-27 06:32N 51°23' E 000°46'0 0.0
2014-Oct-27 05:26N 51°23' E 000°46'0 0.0
2014-Oct-27 04:32N 51°23' E 000°46'0 0.0
2014-Oct-27 03:20N 51°23' E 000°46'0 0.0
2014-Oct-27 02:32N 51°23' E 000°46'0 0.0
2014-Oct-27 01:32N 51°23' E 000°46'0 0.0
2014-Oct-27 00:20N 51°23' E 000°46'0 0.0
2014-Oct-26 23:23N 51°23' E 000°46'0 0.0
2014-Oct-26 22:32N 51°23' E 000°46'0 0.0
2014-Oct-26 21:32N 51°23' E 000°46'0 0.0
2014-Oct-26 20:26N 51°23' E 000°46'0 0.0
2014-Oct-26 19:23N 51°23' E 000°46'0 0.0
2014-Oct-26 18:29N 51°23' E 000°46'0 0.0
2014-Oct-26 15:29N 51°23' E 000°46'0 0.0
2014-Oct-26 14:29N 51°23' E 000°46'0 0.0
2014-Oct-26 13:24N 51°23' E 000°46'2 3.0
2014-Oct-26 12:34N 51°25' E 000°44'1110.8
2014-Oct-26 11:32N 51°30' E 001°00'1212.1
2014-Oct-26 10:33N 51°29' E 001°19'6 5.6
2014-Oct-26 09:33N 51°25' E 001°27'0 0.0
2014-Oct-26 08:34N 51°25' E 001°27'0 0.0
2014-Oct-26 07:34N 51°25' E 001°27'4 4.0
2014-Oct-26 06:34N 51°24' E 001°33'6 6.1
2014-Oct-26 05:34N 51°20' E 001°40'8 7.6
2014-Oct-26 04:34N 51°12' E 001°38'9 9.2
2014-Oct-26 03:34N 51°03' E 001°35'  

Dump ship's entire track history